DEWAYNE DEDMON
#21 - C
Game Log
Date Team Opp GP
Games Played
GS
Games Started
MPG
Minutes played per game
FGM
Field goals made
FGA
Field goals attemps
3PM
Three-point field goals made
3PA
Three-point field goals attemps
FTM
Free throws made
FTA
Free throws attemps
REB
Rebounds
AST
Assists
STL
Steals
BLK
Blocked shots
TO
Turnovers
PTS
Points
Status
2022-05-29 - - - - - - - - - - - - - - - DNP
2022-05-27 - - - - - - - - - - - - - - - DNP
2022-05-25 - - - - - - - - - - - - - - - DNP
2022-05-23 1 0 11.42 3 4 1 1 0 0 1 0 0 0 2 7 -
2022-05-21 1 0 3.45 0 0 0 0 0 0 2 0 0 0 0 0 -
2022-05-19 1 0 12.98 1 1 0 0 0 0 2 1 0 0 0 2 -
2022-05-17 1 0 10.52 2 5 0 1 2 2 4 0 0 1 0 6 -
2022-05-12 1 0 12.4 2 4 0 1 0 0 3 0 0 0 0 4 -
2022-05-10 1 0 12.28 1 5 0 1 0 0 4 0 0 0 1 2 -
2022-05-08 - - - - - - - - - - - - - - - Head cold
2022-05-06 1 0 12.33 1 4 0 1 2 2 3 1 0 0 0 4 -
2022-05-04 1 0 10.57 2 5 0 2 3 4 5 0 0 1 1 7 -
2022-05-02 1 0 4.23 0 1 0 0 0 0 0 0 0 0 0 0 -
2022-04-26 1 0 2.35 0 0 0 0 0 0 2 0 0 0 1 0 -
2022-04-24 1 0 3.58 1 1 0 0 1 1 0 0 0 0 0 3 -
2022-04-22 1 0 13.02 3 6 0 1 1 2 2 0 0 1 0 7 -
2022-04-19 1 0 13.27 3 5 0 1 0 0 9 0 0 0 1 6 -
2022-04-17 1 0 15.18 2 4 0 1 1 1 5 3 1 0 1 5 -
2022-04-10 - - - - - - - - - - - - - - - Right ankle sprain
2022-04-08 1 0 15.15 1 2 0 1 1 2 4 1 1 1 1 3 -
2022-04-05 - - - - - - - - - - - - - - - Right ankle sprain
2022-04-03 - - - - - - - - - - - - - - - Right ankle sprain
2022-04-02 1 0 19.18 6 9 0 3 2 3 5 0 0 0 1 14 -
2022-03-30 1 0 14.58 3 3 0 0 3 6 4 0 2 2 2 9 -
2022-03-28 1 0 13.83 3 6 0 2 0 0 4 1 0 0 1 6 -
2022-03-26 1 0 15.9 2 4 1 3 3 6 9 0 0 1 1 8 -
2022-03-25 1 0 16.08 1 3 1 2 2 2 4 0 0 0 2 5 -
2022-03-23 1 0 9.72 2 3 1 1 1 2 2 0 0 0 0 6 -
2022-03-21 - - - - - - - - - - - - - - - DNP
2022-03-18 - - - - - - - - - - - - - - - DNP
2022-03-15 1 0 14.78 1 3 0 0 0 0 4 1 0 0 1 2 -
2022-03-12 1 0 14.53 1 4 0 1 0 0 8 0 0 1 1 2 -
2022-03-11 1 0 13.95 1 4 0 1 1 1 4 0 0 1 0 3 -
2022-03-09 1 0 14.08 1 5 0 1 0 0 4 0 0 2 0 2 -
2022-03-07 1 0 13.53 3 3 0 0 0 0 6 1 0 2 2 6 -
2022-03-05 1 0 15.48 0 1 0 0 2 2 4 1 0 1 0 2 -
2022-03-03 1 0 15.07 3 4 0 0 0 0 2 1 0 2 1 6 -
2022-03-02 1 0 11 0 3 0 1 2 2 5 2 0 0 1 2 -
2022-02-28 1 0 14.67 2 4 0 0 0 0 3 2 0 2 1 4 -
2022-02-26 1 0 13.55 4 5 0 0 2 2 7 0 0 0 1 10 -
2022-02-25 - - - - - - - - - - - - - - - Back
2022-02-17 - - - - - - - - - - - - - - - Personal reasons
2022-02-15 - - - - - - - - - - - - - - - Back
2022-02-12 1 0 10.97 3 6 1 2 1 2 4 0 1 0 1 8 -
2022-02-10 1 0 17.25 3 5 0 1 5 6 7 0 0 2 1 11 -
2022-02-07 1 0 15.92 4 6 2 3 1 2 5 0 0 0 1 11 -
2022-02-05 1 0 17.27 2 6 0 0 2 2 9 1 1 1 2 6 -
2022-02-03 1 0 14.88 3 6 1 1 2 2 3 2 0 2 1 9 -
2022-02-01 1 0 12.53 2 3 0 1 0 0 4 0 0 0 3 4 -
2022-01-31 1 0 14.42 1 2 0 0 0 0 5 0 0 0 1 2 -
2022-01-29 1 0 17.57 3 5 0 1 0 0 9 1 2 1 2 6 -
2022-01-28 1 0 12.02 1 4 0 1 0 0 7 1 0 1 1 2 -
2022-01-26 1 0 15.02 1 3 0 0 2 2 7 1 1 0 0 4 -
2022-01-23 1 0 8.02 4 5 0 0 1 1 3 0 0 0 1 9 -
2022-01-21 1 0 13.8 2 3 0 0 0 0 6 1 0 0 0 4 -
2022-01-19 1 0 15.43 5 6 0 0 2 3 8 1 1 0 2 12 -
2022-01-17 1 0 16.32 4 6 0 0 0 0 9 0 0 3 1 8 -
2022-01-15 1 0 18.82 2 4 0 1 1 2 4 0 2 0 2 5 -
2022-01-14 1 0 14.25 4 6 0 0 4 4 8 0 0 0 3 12 -
2022-01-12 1 0 17.88 2 2 0 0 2 2 8 0 0 2 1 6 -
2022-01-08 - - - - - - - - - - - - - - - Knee
2022-01-05 - - - - - - - - - - - - - - - Knee
2022-01-03 - - - - - - - - - - - - - - - Knee
2022-01-02 - - - - - - - - - - - - - - - Knee
2021-12-31 - - - - - - - - - - - - - - - Knee
2021-12-28 - - - - - - - - - - - - - - - Knee
2021-12-26 - - - - - - - - - - - - - - - Knee
2021-12-23 1 1 5.32 0 2 0 1 1 2 1 0 0 0 0 1 -
2021-12-21 1 1 19.88 2 3 1 1 0 0 8 2 0 2 2 5 -
2021-12-19 1 1 27 5 6 1 1 0 0 5 2 0 0 3 11 -
2021-12-17 1 1 26.73 5 9 1 2 2 4 6 0 0 0 1 13 -
2021-12-15 1 1 31.6 5 8 0 1 0 0 14 5 2 0 0 10 -
2021-12-13 1 1 23.27 5 7 0 1 0 0 5 2 1 0 1 10 -
2021-12-11 1 1 28.9 8 13 2 2 2 2 12 2 1 1 1 20 -
2021-12-08 1 1 13.13 1 2 0 0 0 0 9 0 0 0 1 2 -
2021-12-06 1 1 20.65 2 4 0 0 0 0 6 0 0 2 1 4 -
2021-12-04 1 1 24.3 3 5 2 2 0 0 13 2 0 1 2 8 -
2021-12-03 1 1 22.55 3 5 1 1 0 0 6 2 1 0 0 7 -
2021-12-01 1 1 30.68 5 13 1 3 0 0 13 3 1 2 1 11 -
2021-11-29 1 0 11.23 3 5 0 1 2 4 6 0 0 1 1 8 -
2021-11-27 1 0 12.03 0 0 0 0 2 2 4 1 1 0 3 2 -
2021-11-24 1 0 7.93 1 1 0 0 7 7 3 0 0 0 2 9 -
2021-11-23 1 0 17.02 3 4 0 0 0 0 6 0 0 0 0 6 -
2021-11-20 1 0 9.23 1 2 0 0 0 0 0 0 0 0 0 2 -
2021-11-18 1 0 9.07 0 1 0 0 1 2 4 1 0 0 0 1 -
2021-11-17 1 1 25.45 1 3 0 1 0 0 8 2 1 0 1 2 -
2021-11-15 1 1 29.38 3 6 1 1 1 2 7 0 1 3 1 8 -
2021-11-13 1 0 11.15 2 2 0 0 0 0 3 1 0 0 1 4 -
2021-11-11 1 0 8.13 0 0 0 0 2 2 3 0 0 0 0 2 -
2021-11-10 1 0 9.75 2 3 0 0 0 4 5 0 0 0 0 4 -
2021-11-08 1 0 14.28 3 4 0 0 4 4 3 0 0 0 1 10 -
2021-11-06 1 0 12.28 1 5 0 0 1 1 1 0 0 0 0 3 -
2021-11-04 1 0 11.42 1 1 0 0 0 0 1 0 0 0 0 2 -
2021-11-02 1 0 13.57 4 7 0 0 2 2 5 0 1 1 0 10 -
2021-10-30 1 1 17.28 3 7 1 1 2 2 9 1 0 1 2 9 -
2021-10-29 1 0 11.48 0 0 0 0 0 0 6 1 0 0 1 0 -
2021-10-27 1 0 17 6 9 0 0 2 2 9 0 1 0 1 14 -
2021-10-25 1 0 17.33 1 3 0 0 0 0 8 1 2 1 1 2 -
2021-10-23 1 0 13.65 0 0 0 0 0 0 3 1 0 0 2 0 -
2021-10-21 1 0 15.02 5 6 1 1 2 2 9 0 0 0 1 13 -